• Join FlightAware (Why Join?)
  • Login
  • US Flag 
05:58AM EDT


 

Airport Tracker/Info


-or-


 

Live Flight TrackerFlight Track Log ✈ SKW4672 ✈ 01-Jun-2012 ✈ KBUR - KSLC

Flight Track Log - Related Links

Times and Time Zones

All times are in EDT time to prevent confusion due to time zone crossing. See the SKW4672 flight status page for this flight to view local times or setup timezone preferences in your user account.

Time Position Orientation Groundspeed Altitude Reporting Facility
EDT Latitude Longitude Course Direction KTS MPH feet Rate Location/Type
10:10AM 34.1392 -118.4128 324° Northwest 187 215 4,300  Level Los Angeles Center
10:11AM 34.1803 -118.4489 344° North 155 178 6,000 2,100 Climbing Los Angeles Center
10:12AM 34.2486 -118.4733 North 178 205 8,500 2,400 Climbing Los Angeles Center
10:13AM 34.3175 -118.4703 27° Northeast 211 243 10,900 2,400 Climbing Los Angeles Center
10:14AM 34.3767 -118.4342 55° Northeast 224 258 13,300 1,500 Climbing Los Angeles Center
10:15AM 34.4242 -118.3525 69° East 254 292 14,000 1,200 Climbing Los Angeles Center
10:16AM 34.4553 -118.2525 68° East 282 325 15,700 1,500 Climbing Los Angeles Center
10:17AM 34.4861 -118.1575 71° East 292 336 17,000 1,380 Climbing Los Angeles Center
10:18AM 34.5169 -118.0472 69° East 321 369 18,500 1,500 Climbing Los Angeles Center
10:19AM 34.5522 -117.9347 69° East 342 394 20,100 1,440 Climbing Los Angeles Center
10:20AM 34.5872 -117.8219 69° East 349 402 21,400 1,200 Climbing Los Angeles Center
10:21AM 34.6242 -117.7039 70° East 359 413 22,600 1,200 Climbing Los Angeles Center
10:22AM 34.6611 -117.5808 70° East 371 427 23,900 1,200 Climbing Los Angeles Center
10:23AM 34.6981 -117.4578 70° East 376 433 25,000 540 Climbing Los Angeles Center
10:24AM 34.7369 -117.3269 69° East 393 452 25,000 480 Level Los Angeles Center
10:25AM 34.7781 -117.1936 71° East 405 466 26,000 960 Climbing Los Angeles Center
10:26AM 34.8167 -117.0600 70° East 411 473 27,000 900 Climbing Los Angeles Center
10:27AM 34.8572 -116.9261 58° Northeast 416 479 27,800 900 Climbing Los Angeles Center
10:28AM 34.9183 -116.8078 48° Northeast 416 479 28,800 780 Climbing Los Angeles Center
10:29AM 34.9983 -116.6994 49° Northeast 407 468 29,400 780 Climbing Los Angeles Center
10:30AM 35.0761 -116.5908 48° Northeast 418 481 30,400 660 Climbing Los Angeles Center
10:31AM 35.1556 -116.4819 49° Northeast 424 488 30,800 420 Climbing Los Angeles Center
10:32AM 35.2331 -116.3731 49° Northeast 424 488 31,300 480 Climbing Los Angeles Center
10:33AM 35.3128 -116.2586 48° Northeast 430 495 31,800 480 Climbing Los Angeles Center
10:34AM 35.3942 -116.1467 50° Northeast 430 495 32,300 480 Climbing Los Angeles Center
10:35AM 35.4733 -116.0294 49° Northeast 430 495 32,800 300 Climbing Los Angeles Center
10:36AM 35.5525 -115.9169 45° Northeast 435 501 33,000 60 Climbing Los Angeles Center
10:37AM 35.6483 -115.7992 32° Northeast 435 501 33,000  Level Los Angeles Center
10:38AM 35.7397 -115.7297 35° Northeast 426 490 33,000  Level Los Angeles Center
10:39AM 35.8458 -115.6397 37° Northeast 426 490 33,000  Level Los Angeles Center
10:40AM 35.9414 -115.5519 35° Northeast 420 483 33,000  Level Los Angeles Center
10:41AM 36.0369 -115.4689 36° Northeast 420 483 33,000  Level Los Angeles Center
10:42AM 36.1306 -115.3858 34° Northeast 420 483 33,000  Level Los Angeles Center
10:43AM 36.2281 -115.3053 35° Northeast 420 483 33,000  Level Los Angeles Center
10:44AM 36.3256 -115.2217 35° Northeast 420 483 33,000  Level Los Angeles Center
10:45AM 36.4228 -115.1381 35° Northeast 420 483 33,000  Level Los Angeles Center
10:46AM 36.5203 -115.0542 35° Northeast 420 483 33,000  Level Los Angeles Center
10:47AM 36.6175 -114.9700 35° Northeast 420 483 33,000  Level Los Angeles Center
10:48AM 36.6894 -114.9075 35° Northeast 421 484 33,000  Level Salt Lake Center
10:49AM 36.7831 -114.8244 36° Northeast 416 479 33,000  Level Salt Lake Center
10:50AM 36.8964 -114.7219 35° Northeast 409 471 33,000  Level Los Angeles Center
10:51AM 36.9892 -114.6397 36° Northeast 409 471 33,000  Level Los Angeles Center
10:52AM 37.0842 -114.5547 34° Northeast 409 471 33,000  Level Los Angeles Center
10:53AM 37.1831 -114.4719 35° Northeast 414 476 33,000  Level Los Angeles Center
10:54AM 37.2758 -114.3892 37° Northeast 414 476 33,000  Level Los Angeles Center
10:55AM 37.3603 -114.3089 36° Northeast 420 483 33,000  Level Los Angeles Center
10:56AM 37.4528 -114.2256 34° Northeast 420 483 33,000  Level Los Angeles Center
10:57AM 37.5494 -114.1422 36° Northeast 420 483 33,000  Level Los Angeles Center
10:58AM 37.6439 -114.0558 36° Northeast 420 483 33,000  Level Los Angeles Center
10:59AM 37.7622 -113.9486 36° Northeast 419 482 33,000  Level Salt Lake Center
11:00AM 37.8586 -113.8606 36° Northeast 418 481 33,000  Level Salt Lake Center
11:01AM 37.9542 -113.7717 35° Northeast 418 481 33,000  Level Salt Lake Center
11:03AM 38.0514 -113.6839 35° Northeast 419 482 33,000  Level Salt Lake Center
11:04AM 38.1489 -113.5956 36° Northeast 421 484 33,000  Level Salt Lake Center
11:05AM 38.2447 -113.5069 36° Northeast 420 483 33,000  Level Salt Lake Center
11:06AM 38.3597 -113.3989 36° Northeast 419 482 33,000  Level Salt Lake Center
11:07AM 38.4558 -113.3094 36° Northeast 420 483 33,000  Level Salt Lake Center
11:08AM 38.5525 -113.2192 37° Northeast 421 484 33,000 -60 Level Salt Lake Center
11:09AM 38.6483 -113.1281 36° Northeast 422 486 32,900 -600 Descending Salt Lake Center
11:10AM 38.7450 -113.0369 32° Northeast 423 487 31,800 -960 Descending Salt Lake Center
11:11AM 38.8453 -112.9553 22° Northeast 421 484 31,000 -420 Descending Salt Lake Center
11:12AM 38.9481 -112.9008 24° Northeast 395 455 31,000  Level Salt Lake Center
11:13AM 39.0503 -112.8428 24° Northeast 391 450 31,000  Level Salt Lake Center
11:14AM 39.1522 -112.7847 24° Northeast 393 452 31,000  Level Salt Lake Center
11:15AM 39.2775 -112.7117 24° Northeast 401 461 31,000  Level Salt Lake Center
11:16AM 39.3825 -112.6500 24° Northeast 407 468 31,000 -720 Level Salt Lake Center
11:17AM 39.4886 -112.5889 24° Northeast 412 474 29,600 -1,860 Descending Salt Lake Center
11:18AM 39.5936 -112.5275 25° Northeast 411 473 27,200 -2,280 Descending Salt Lake Center
11:19AM 39.6903 -112.4686 24° Northeast 383 441 24,900 -2,280 Descending Salt Lake Center
11:20AM 39.8017 -112.4042 25° Northeast 376 433 22,500 -2,220 Descending Salt Lake Center
11:21AM 39.8928 -112.3497 17° North 363 418 20,300 -2,100 Descending Salt Lake Center
11:22AM 39.9572 -112.3233 28° Northeast 351 404 18,900 -1,620 Descending Salt Lake Center
11:23AM 40.0647 -112.2483 14° North 329 379 17,000 -1,260 Descending Salt Lake Center
11:24AM 40.1531 -112.2206 14° North 324 373 15,900 -1,200 Descending Salt Lake Center
11:25AM 40.2558 -112.1861 15° North 323 372 14,500 -1,200 Descending Salt Lake Center
11:27AM 40.3408 -112.1572 14° North 316 364 13,500 -720 Descending Salt Lake Center
11:28AM 40.4219 -112.1297 15° North 300 345 13,000 -300 Descending Salt Lake Center
11:29AM 40.4989 -112.1033 10° North 284 327 12,900 -720 Descending Salt Lake Center
11:30AM 40.5886 -112.0817 360° North 281 323 11,500 -960 Descending Salt Lake Center
11:31AM 40.6681 -112.0819 355° North 274 315 11,000 -240 Descending Salt Lake Center
11:32AM 40.7511 -112.0917 355° North 233 268 11,000  Level Salt Lake Center